sensor_id;sensor_type;location;lat;lon;timestamp;P1;durP1;ratioP1;P2;durP2;ratioP2
58302;SDS011;44109;52.398;7.024;2023-04-01T00:00:37;4.60;;;1.23;;
58302;SDS011;44109;52.398;7.024;2023-04-01T00:03:05;3.42;;;1.55;;
58302;SDS011;44109;52.398;7.024;2023-04-01T00:05:37;3.22;;;1.20;;
58302;SDS011;44109;52.398;7.024;2023-04-01T00:08:05;3.72;;;1.45;;
58302;SDS011;44109;52.398;7.024;2023-04-01T00:10:33;2.58;;;1.40;;
58302;SDS011;44109;52.398;7.024;2023-04-01T00:13:00;3.05;;;1.58;;
58302;SDS011;44109;52.398;7.024;2023-04-01T00:15:28;4.40;;;1.27;;
58302;SDS011;44109;52.398;7.024;2023-04-01T00:17:56;3.58;;;1.63;;
58302;SDS011;44109;52.398;7.024;2023-04-01T00:20:24;4.70;;;1.60;;
58302;SDS011;44109;52.398;7.024;2023-04-01T00:22:53;4.10;;;1.40;;
58302;SDS011;44109;52.398;7.024;2023-04-01T00:25:22;3.05;;;1.25;;
58302;SDS011;44109;52.398;7.024;2023-04-01T00:27:50;2.83;;;1.20;;
58302;SDS011;44109;52.398;7.024;2023-04-01T00:30:18;4.70;;;1.90;;
58302;SDS011;44109;52.398;7.024;2023-04-01T00:32:46;3.40;;;1.40;;
58302;SDS011;44109;52.398;7.024;2023-04-01T00:35:13;5.32;;;2.58;;
58302;SDS011;44109;52.398;7.024;2023-04-01T00:37:41;4.35;;;2.17;;
58302;SDS011;44109;52.398;7.024;2023-04-01T00:40:21;5.45;;;1.80;;
58302;SDS011;44109;52.398;7.024;2023-04-01T00:42:54;2.75;;;1.83;;
58302;SDS011;44109;52.398;7.024;2023-04-01T00:45:29;3.63;;;2.05;;
58302;SDS011;44109;52.398;7.024;2023-04-01T00:48:02;2.92;;;2.05;;
58302;SDS011;44109;52.398;7.024;2023-04-01T00:50:35;3.45;;;1.77;;
58302;SDS011;44109;52.398;7.024;2023-04-01T00:53:06;3.40;;;1.70;;
58302;SDS011;44109;52.398;7.024;2023-04-01T00:55:37;3.00;;;1.40;;
58302;SDS011;44109;52.398;7.024;2023-04-01T00:58:13;4.32;;;2.08;;
58302;SDS011;44109;52.398;7.024;2023-04-01T01:00:46;4.88;;;1.58;;
58302;SDS011;44109;52.398;7.024;2023-04-01T01:03:17;8.02;;;2.17;;
58302;SDS011;44109;52.398;7.024;2023-04-01T01:05:52;3.13;;;1.58;;
58302;SDS011;44109;52.398;7.024;2023-04-01T01:08:41;3.72;;;1.70;;
58302;SDS011;44109;52.398;7.024;2023-04-01T01:11:47;1.73;;;1.23;;
58302;SDS011;44109;52.398;7.024;2023-04-01T01:14:27;2.15;;;1.40;;
58302;SDS011;44109;52.398;7.024;2023-04-01T01:17:12;3.20;;;1.33;;
58302;SDS011;44109;52.398;7.024;2023-04-01T01:19:54;3.70;;;1.50;;
58302;SDS011;44109;52.398;7.024;2023-04-01T01:22:52;2.28;;;1.30;;
58302;SDS011;44109;52.398;7.024;2023-04-01T01:25:41;3.17;;;1.50;;
58302;SDS011;44109;52.398;7.024;2023-04-01T01:28:31;3.45;;;1.52;;
58302;SDS011;44109;52.398;7.024;2023-04-01T01:31:16;3.67;;;2.10;;
58302;SDS011;44109;52.398;7.024;2023-04-01T01:33:54;2.85;;;1.48;;
58302;SDS011;44109;52.398;7.024;2023-04-01T01:36:42;3.45;;;1.73;;
58302;SDS011;44109;52.398;7.024;2023-04-01T01:39:15;3.03;;;1.65;;
58302;SDS011;44109;52.398;7.024;2023-04-01T01:41:46;2.42;;;1.58;;
58302;SDS011;44109;52.398;7.024;2023-04-01T01:44:16;5.32;;;1.70;;
58302;SDS011;44109;52.398;7.024;2023-04-01T01:46:45;2.67;;;1.27;;
58302;SDS011;44109;52.398;7.024;2023-04-01T01:49:15;2.00;;;1.58;;
58302;SDS011;44109;52.398;7.024;2023-04-01T01:51:47;1.92;;;1.30;;
58302;SDS011;44109;52.398;7.024;2023-04-01T01:54:14;2.53;;;1.58;;
58302;SDS011;44109;52.398;7.024;2023-04-01T01:56:45;2.50;;;1.52;;
58302;SDS011;44109;52.398;7.024;2023-04-01T01:59:20;3.70;;;1.52;;
58302;SDS011;44109;52.398;7.024;2023-04-01T02:01:52;3.30;;;1.77;;
58302;SDS011;44109;52.398;7.024;2023-04-01T02:04:24;2.27;;;1.70;;
58302;SDS011;44109;52.398;7.024;2023-04-01T02:06:55;2.95;;;1.70;;
58302;SDS011;44109;52.398;7.024;2023-04-01T02:09:28;2.97;;;1.50;;
58302;SDS011;44109;52.398;7.024;2023-04-01T02:11:56;1.95;;;1.15;;
58302;SDS011;44109;52.398;7.024;2023-04-01T02:14:28;2.85;;;1.50;;
58302;SDS011;44109;52.398;7.024;2023-04-01T02:17:07;2.67;;;1.85;;
58302;SDS011;44109;52.398;7.024;2023-04-01T02:19:40;2.85;;;1.80;;
58302;SDS011;44109;52.398;7.024;2023-04-01T02:22:18;2.78;;;1.60;;
58302;SDS011;44109;52.398;7.024;2023-04-01T02:24:51;3.83;;;1.83;;
58302;SDS011;44109;52.398;7.024;2023-04-01T02:27:24;2.55;;;1.77;;
58302;SDS011;44109;52.398;7.024;2023-04-01T02:29:52;2.85;;;1.98;;
58302;SDS011;44109;52.398;7.024;2023-04-01T02:32:20;3.42;;;1.70;;
58302;SDS011;44109;52.398;7.024;2023-04-01T02:34:49;2.47;;;1.48;;
58302;SDS011;44109;52.398;7.024;2023-04-01T02:37:18;2.47;;;1.50;;
58302;SDS011;44109;52.398;7.024;2023-04-01T02:39:46;2.30;;;1.20;;
58302;SDS011;44109;52.398;7.024;2023-04-01T02:42:14;3.40;;;1.63;;
58302;SDS011;44109;52.398;7.024;2023-04-01T02:44:42;2.67;;;1.60;;
58302;SDS011;44109;52.398;7.024;2023-04-01T02:47:09;1.90;;;1.20;;
58302;SDS011;44109;52.398;7.024;2023-04-01T02:49:37;1.98;;;1.20;;
58302;SDS011;44109;52.398;7.024;2023-04-01T02:52:04;2.10;;;1.70;;
58302;SDS011;44109;52.398;7.024;2023-04-01T02:54:33;1.63;;;1.10;;
58302;SDS011;44109;52.398;7.024;2023-04-01T02:57:01;3.78;;;1.35;;
58302;SDS011;44109;52.398;7.024;2023-04-01T02:59:28;3.05;;;1.40;;
58302;SDS011;44109;52.398;7.024;2023-04-01T03:01:56;2.95;;;1.20;;
58302;SDS011;44109;52.398;7.024;2023-04-01T03:04:23;1.55;;;0.93;;
58302;SDS011;44109;52.398;7.024;2023-04-01T03:06:51;1.83;;;1.30;;
58302;SDS011;44109;52.398;7.024;2023-04-01T03:09:19;2.25;;;1.50;;
58302;SDS011;44109;52.398;7.024;2023-04-01T03:11:47;1.58;;;1.20;;
58302;SDS011;44109;52.398;7.024;2023-04-01T03:14:15;1.88;;;1.05;;
58302;SDS011;44109;52.398;7.024;2023-04-01T03:16:43;1.80;;;0.90;;
58302;SDS011;44109;52.398;7.024;2023-04-01T03:19:10;2.75;;;1.40;;
58302;SDS011;44109;52.398;7.024;2023-04-01T03:21:38;1.60;;;0.93;;
58302;SDS011;44109;52.398;7.024;2023-04-01T03:24:06;1.65;;;1.05;;
58302;SDS011;44109;52.398;7.024;2023-04-01T03:26:33;1.90;;;1.17;;
58302;SDS011;44109;52.398;7.024;2023-04-01T03:29:02;2.20;;;1.25;;
58302;SDS011;44109;52.398;7.024;2023-04-01T03:31:30;2.67;;;1.55;;
58302;SDS011;44109;52.398;7.024;2023-04-01T03:33:58;2.13;;;1.30;;
58302;SDS011;44109;52.398;7.024;2023-04-01T03:36:25;2.30;;;1.30;;
58302;SDS011;44109;52.398;7.024;2023-04-01T03:38:53;1.85;;;1.25;;
58302;SDS011;44109;52.398;7.024;2023-04-01T03:41:20;1.63;;;1.17;;
58302;SDS011;44109;52.398;7.024;2023-04-01T03:43:48;2.00;;;1.20;;
58302;SDS011;44109;52.398;7.024;2023-04-01T03:46:18;3.05;;;1.58;;
58302;SDS011;44109;52.398;7.024;2023-04-01T03:48:46;3.17;;;1.40;;
58302;SDS011;44109;52.398;7.024;2023-04-01T03:51:14;3.00;;;1.30;;
58302;SDS011;44109;52.398;7.024;2023-04-01T03:53:41;3.53;;;1.58;;
58302;SDS011;44109;52.398;7.024;2023-04-01T03:56:09;3.13;;;1.65;;
58302;SDS011;44109;52.398;7.024;2023-04-01T03:58:37;2.20;;;1.30;;
58302;SDS011;44109;52.398;7.024;2023-04-01T04:01:12;2.90;;;1.67;;
58302;SDS011;44109;52.398;7.024;2023-04-01T04:03:43;2.08;;;1.67;;
58302;SDS011;44109;52.398;7.024;2023-04-01T04:06:12;2.47;;;1.85;;
58302;SDS011;44109;52.398;7.024;2023-04-01T04:08:41;2.92;;;1.95;;
58302;SDS011;44109;52.398;7.024;2023-04-01T04:11:09;3.03;;;1.95;;
58302;SDS011;44109;52.398;7.024;2023-04-01T04:13:37;3.00;;;1.75;;
58302;SDS011;44109;52.398;7.024;2023-04-01T04:16:04;2.45;;;1.63;;
58302;SDS011;44109;52.398;7.024;2023-04-01T04:18:33;5.32;;;2.30;;
58302;SDS011;44109;52.398;7.024;2023-04-01T04:21:02;2.58;;;1.88;;
58302;SDS011;44109;52.398;7.024;2023-04-01T04:23:30;2.80;;;1.63;;
58302;SDS011;44109;52.398;7.024;2023-04-01T04:26:00;4.55;;;1.88;;
58302;SDS011;44109;52.398;7.024;2023-04-01T04:28:30;6.80;;;2.95;;
58302;SDS011;44109;52.398;7.024;2023-04-01T04:30:59;2.97;;;2.08;;
58302;SDS011;44109;52.398;7.024;2023-04-01T04:33:28;2.42;;;1.77;;
58302;SDS011;44109;52.398;7.024;2023-04-01T04:35:56;4.03;;;2.50;;
58302;SDS011;44109;52.398;7.024;2023-04-01T04:38:27;3.67;;;2.20;;
58302;SDS011;44109;52.398;7.024;2023-04-01T04:40:54;3.08;;;2.10;;
58302;SDS011;44109;52.398;7.024;2023-04-01T04:43:23;5.20;;;2.22;;
58302;SDS011;44109;52.398;7.024;2023-04-01T04:45:50;3.60;;;2.30;;
58302;SDS011;44109;52.398;7.024;2023-04-01T04:48:18;3.95;;;2.80;;
58302;SDS011;44109;52.398;7.024;2023-04-01T04:50:46;4.15;;;2.42;;
58302;SDS011;44109;52.398;7.024;2023-04-01T04:53:16;3.88;;;2.55;;
58302;SDS011;44109;52.398;7.024;2023-04-01T04:55:46;4.05;;;2.58;;
58302;SDS011;44109;52.398;7.024;2023-04-01T04:58:16;5.45;;;2.72;;
58302;SDS011;44109;52.398;7.024;2023-04-01T05:00:45;5.95;;;3.28;;
58302;SDS011;44109;52.398;7.024;2023-04-01T05:03:13;6.22;;;3.22;;
58302;SDS011;44109;52.398;7.024;2023-04-01T05:05:47;7.05;;;3.83;;
58302;SDS011;44109;52.398;7.024;2023-04-01T05:08:17;6.72;;;3.53;;
58302;SDS011;44109;52.398;7.024;2023-04-01T05:10:44;6.25;;;3.15;;
58302;SDS011;44109;52.398;7.024;2023-04-01T05:13:14;8.00;;;4.05;;
58302;SDS011;44109;52.398;7.024;2023-04-01T05:15:41;5.22;;;3.28;;
58302;SDS011;44109;52.398;7.024;2023-04-01T05:18:09;5.85;;;3.55;;
58302;SDS011;44109;52.398;7.024;2023-04-01T05:20:36;6.70;;;4.25;;
58302;SDS011;44109;52.398;7.024;2023-04-01T05:23:04;6.20;;;3.67;;
58302;SDS011;44109;52.398;7.024;2023-04-01T05:25:32;5.43;;;3.72;;
58302;SDS011;44109;52.398;7.024;2023-04-01T05:28:01;6.20;;;4.10;;
58302;SDS011;44109;52.398;7.024;2023-04-01T05:30:28;5.13;;;3.58;;
58302;SDS011;44109;52.398;7.024;2023-04-01T05:32:56;7.47;;;3.80;;
58302;SDS011;44109;52.398;7.024;2023-04-01T05:35:23;6.18;;;3.85;;
58302;SDS011;44109;52.398;7.024;2023-04-01T05:37:51;5.97;;;3.60;;
58302;SDS011;44109;52.398;7.024;2023-04-01T05:40:19;6.18;;;3.70;;
58302;SDS011;44109;52.398;7.024;2023-04-01T05:42:46;5.63;;;3.08;;
58302;SDS011;44109;52.398;7.024;2023-04-01T05:45:16;5.50;;;2.88;;
58302;SDS011;44109;52.398;7.024;2023-04-01T05:47:43;9.30;;;3.72;;
58302;SDS011;44109;52.398;7.024;2023-04-01T05:50:11;5.82;;;4.10;;
58302;SDS011;44109;52.398;7.024;2023-04-01T05:52:39;5.18;;;3.20;;
58302;SDS011;44109;52.398;7.024;2023-04-01T05:55:07;6.57;;;3.58;;
58302;SDS011;44109;52.398;7.024;2023-04-01T05:57:36;6.47;;;3.75;;
58302;SDS011;44109;52.398;7.024;2023-04-01T06:00:04;5.95;;;3.92;;
58302;SDS011;44109;52.398;7.024;2023-04-01T06:02:35;5.50;;;3.60;;
58302;SDS011;44109;52.398;7.024;2023-04-01T06:05:09;6.45;;;3.88;;
58302;SDS011;44109;52.398;7.024;2023-04-01T06:07:43;6.53;;;4.07;;
58302;SDS011;44109;52.398;7.024;2023-04-01T06:10:15;6.63;;;3.95;;
58302;SDS011;44109;52.398;7.024;2023-04-01T06:12:51;5.30;;;3.70;;
58302;SDS011;44109;52.398;7.024;2023-04-01T06:15:34;5.13;;;3.30;;
58302;SDS011;44109;52.398;7.024;2023-04-01T06:18:25;6.88;;;3.65;;
58302;SDS011;44109;52.398;7.024;2023-04-01T06:21:23;4.85;;;3.45;;
58302;SDS011;44109;52.398;7.024;2023-04-01T06:24:13;5.90;;;3.42;;
58302;SDS011;44109;52.398;7.024;2023-04-01T06:27:21;6.80;;;3.50;;
58302;SDS011;44109;52.398;7.024;2023-04-01T06:30:13;5.75;;;3.38;;
58302;SDS011;44109;52.398;7.024;2023-04-01T06:33:05;5.25;;;3.50;;
58302;SDS011;44109;52.398;7.024;2023-04-01T06:36:01;6.13;;;4.00;;
58302;SDS011;44109;52.398;7.024;2023-04-01T06:39:00;5.10;;;3.72;;
58302;SDS011;44109;52.398;7.024;2023-04-01T06:44:49;4.88;;;3.25;;
58302;SDS011;44109;52.398;7.024;2023-04-01T06:47:40;5.05;;;2.83;;
58302;SDS011;44109;52.398;7.024;2023-04-01T06:50:33;4.18;;;3.03;;
58302;SDS011;44109;52.398;7.024;2023-04-01T06:53:12;4.28;;;2.33;;
58302;SDS011;44109;52.398;7.024;2023-04-01T06:55:53;4.10;;;3.05;;
58302;SDS011;44109;52.398;7.024;2023-04-01T06:58:27;3.95;;;2.53;;
58302;SDS011;44109;52.398;7.024;2023-04-01T07:01:02;4.57;;;2.92;;
58302;SDS011;44109;52.398;7.024;2023-04-01T07:03:36;4.88;;;2.78;;
58302;SDS011;44109;52.398;7.024;2023-04-01T07:06:12;4.63;;;3.00;;
58302;SDS011;44109;52.398;7.024;2023-04-01T07:08:52;4.75;;;2.90;;
58302;SDS011;44109;52.398;7.024;2023-04-01T07:11:26;4.20;;;2.67;;
58302;SDS011;44109;52.398;7.024;2023-04-01T07:13:59;3.80;;;2.27;;
58302;SDS011;44109;52.398;7.024;2023-04-01T07:16:37;4.30;;;2.95;;
58302;SDS011;44109;52.398;7.024;2023-04-01T07:19:15;3.42;;;2.28;;
58302;SDS011;44109;52.398;7.024;2023-04-01T07:21:54;3.63;;;2.25;;
58302;SDS011;44109;52.398;7.024;2023-04-01T07:24:29;4.20;;;2.83;;
58302;SDS011;44109;52.398;7.024;2023-04-01T07:27:05;3.13;;;2.17;;
58302;SDS011;44109;52.398;7.024;2023-04-01T07:32:07;3.65;;;2.58;;
58302;SDS011;44109;52.398;7.024;2023-04-01T07:34:50;4.25;;;2.40;;
58302;SDS011;44109;52.398;7.024;2023-04-01T07:37:33;5.80;;;3.63;;
58302;SDS011;44109;52.398;7.024;2023-04-01T07:43:01;4.00;;;2.30;;
58302;SDS011;44109;52.398;7.024;2023-04-01T07:45:51;3.33;;;2.25;;
58302;SDS011;44109;52.398;7.024;2023-04-01T07:48:36;3.67;;;2.05;;
58302;SDS011;44109;52.398;7.024;2023-04-01T07:51:17;5.28;;;2.63;;
58302;SDS011;44109;52.398;7.024;2023-04-01T07:53:58;4.35;;;2.95;;
58302;SDS011;44109;52.398;7.024;2023-04-01T07:56:36;3.63;;;2.35;;
58302;SDS011;44109;52.398;7.024;2023-04-01T07:59:14;4.15;;;2.22;;
58302;SDS011;44109;52.398;7.024;2023-04-01T08:01:53;3.55;;;2.10;;
58302;SDS011;44109;52.398;7.024;2023-04-01T08:04:42;4.88;;;2.53;;
58302;SDS011;44109;52.398;7.024;2023-04-01T08:07:23;4.95;;;2.63;;
58302;SDS011;44109;52.398;7.024;2023-04-01T08:10:05;3.92;;;2.70;;
58302;SDS011;44109;52.398;7.024;2023-04-01T08:12:48;3.53;;;2.15;;
58302;SDS011;44109;52.398;7.024;2023-04-01T08:15:28;3.58;;;2.45;;
58302;SDS011;44109;52.398;7.024;2023-04-01T08:18:09;3.53;;;2.33;;
58302;SDS011;44109;52.398;7.024;2023-04-01T08:20:56;4.57;;;2.67;;
58302;SDS011;44109;52.398;7.024;2023-04-01T08:23:27;4.97;;;3.10;;
58302;SDS011;44109;52.398;7.024;2023-04-01T08:26:02;4.47;;;2.90;;
58302;SDS011;44109;52.398;7.024;2023-04-01T08:28:38;3.90;;;2.88;;
58302;SDS011;44109;52.398;7.024;2023-04-01T08:31:12;5.10;;;3.33;;
58302;SDS011;44109;52.398;7.024;2023-04-01T08:33:46;7.70;;;4.07;;
58302;SDS011;44109;52.398;7.024;2023-04-01T08:36:20;5.82;;;3.63;;
58302;SDS011;44109;52.398;7.024;2023-04-01T08:38:55;5.70;;;3.70;;
58302;SDS011;44109;52.398;7.024;2023-04-01T08:48:00;3.20;;;2.15;;
58302;SDS011;44109;52.398;7.024;2023-04-01T08:54:42;2.88;;;1.67;;
58302;SDS011;44109;52.398;7.024;2023-04-01T08:57:35;3.72;;;1.98;;
58302;SDS011;44109;52.398;7.024;2023-04-01T09:00:20;2.80;;;1.80;;
58302;SDS011;44109;52.398;7.024;2023-04-01T09:03:15;2.63;;;1.83;;
58302;SDS011;44109;52.398;7.024;2023-04-01T09:06:06;2.70;;;1.98;;
58302;SDS011;44109;52.398;7.024;2023-04-01T09:09:04;3.65;;;2.58;;
58302;SDS011;44109;52.398;7.024;2023-04-01T09:11:59;3.15;;;2.10;;
58302;SDS011;44109;52.398;7.024;2023-04-01T09:15:14;3.65;;;2.20;;
58302;SDS011;44109;52.398;7.024;2023-04-01T09:18:17;2.90;;;1.77;;
58302;SDS011;44109;52.398;7.024;2023-04-01T09:21:24;2.85;;;1.98;;
58302;SDS011;44109;52.398;7.024;2023-04-01T09:24:42;3.40;;;2.40;;
58302;SDS011;44109;52.398;7.024;2023-04-01T09:27:32;3.33;;;1.92;;
58302;SDS011;44109;52.398;7.024;2023-04-01T09:36:47;3.65;;;2.38;;
58302;SDS011;44109;52.398;7.024;2023-04-01T09:39:37;4.15;;;1.80;;
58302;SDS011;44109;52.398;7.024;2023-04-01T09:42:29;3.05;;;1.60;;
58302;SDS011;44109;52.398;7.024;2023-04-01T09:45:15;2.92;;;1.90;;
58302;SDS011;44109;52.398;7.024;2023-04-01T09:48:03;2.40;;;1.63;;
58302;SDS011;44109;52.398;7.024;2023-04-01T09:51:02;3.10;;;2.20;;
58302;SDS011;44109;52.398;7.024;2023-04-01T09:53:48;2.53;;;1.85;;
58302;SDS011;44109;52.398;7.024;2023-04-01T09:56:47;2.47;;;1.63;;
58302;SDS011;44109;52.398;7.024;2023-04-01T09:59:52;3.72;;;2.40;;
58302;SDS011;44109;52.398;7.024;2023-04-01T10:09:33;3.42;;;2.05;;
58302;SDS011;44109;52.398;7.024;2023-04-01T10:13:03;3.38;;;2.10;;
58302;SDS011;44109;52.398;7.024;2023-04-01T10:16:21;5.95;;;4.30;;
58302;SDS011;44109;52.398;7.024;2023-04-01T10:19:29;4.07;;;3.38;;
58302;SDS011;44109;52.398;7.024;2023-04-01T10:26:01;4.50;;;2.55;;
58302;SDS011;44109;52.398;7.024;2023-04-01T10:32:22;2.45;;;1.40;;
58302;SDS011;44109;52.398;7.024;2023-04-01T10:36:01;3.70;;;1.88;;
58302;SDS011;44109;52.398;7.024;2023-04-01T10:39:22;2.35;;;1.55;;
58302;SDS011;44109;52.398;7.024;2023-04-01T10:46:03;6.22;;;1.90;;
58302;SDS011;44109;52.398;7.024;2023-04-01T10:56:07;2.00;;;1.38;;
58302;SDS011;44109;52.398;7.024;2023-04-01T11:06:11;2.38;;;1.17;;
58302;SDS011;44109;52.398;7.024;2023-04-01T11:13:21;3.88;;;2.22;;
58302;SDS011;44109;52.398;7.024;2023-04-01T11:20:07;5.00;;;2.92;;
58302;SDS011;44109;52.398;7.024;2023-04-01T11:26:13;7.03;;;3.63;;
58302;SDS011;44109;52.398;7.024;2023-04-01T11:29:26;6.72;;;3.50;;
58302;SDS011;44109;52.398;7.024;2023-04-01T11:32:19;7.45;;;3.53;;
58302;SDS011;44109;52.398;7.024;2023-04-01T11:35:22;9.07;;;3.97;;
58302;SDS011;44109;52.398;7.024;2023-04-01T11:38:10;4.60;;;2.80;;
58302;SDS011;44109;52.398;7.024;2023-04-01T11:40:59;2.88;;;1.80;;
58302;SDS011;44109;52.398;7.024;2023-04-01T11:43:42;2.17;;;1.40;;
58302;SDS011;44109;52.398;7.024;2023-04-01T11:46:30;2.10;;;1.40;;
58302;SDS011;44109;52.398;7.024;2023-04-01T11:49:12;2.15;;;1.30;;
58302;SDS011;44109;52.398;7.024;2023-04-01T11:52:01;2.75;;;1.90;;
58302;SDS011;44109;52.398;7.024;2023-04-01T11:58:07;2.65;;;1.30;;
58302;SDS011;44109;52.398;7.024;2023-04-01T12:04:18;2.38;;;1.27;;
58302;SDS011;44109;52.398;7.024;2023-04-01T12:07:08;1.42;;;1.00;;
58302;SDS011;44109;52.398;7.024;2023-04-01T12:09:52;2.10;;;1.20;;
58302;SDS011;44109;52.398;7.024;2023-04-01T12:12:32;1.60;;;0.90;;
58302;SDS011;44109;52.398;7.024;2023-04-01T12:15:17;1.90;;;0.90;;
58302;SDS011;44109;52.398;7.024;2023-04-01T12:17:57;1.88;;;0.90;;
58302;SDS011;44109;52.398;7.024;2023-04-01T12:20:38;1.15;;;0.52;;
58302;SDS011;44109;52.398;7.024;2023-04-01T12:23:20;2.65;;;1.60;;
58302;SDS011;44109;52.398;7.024;2023-04-01T12:26:28;2.53;;;2.03;;
58302;SDS011;44109;52.398;7.024;2023-04-01T12:29:19;3.33;;;2.30;;
58302;SDS011;44109;52.398;7.024;2023-04-01T12:32:15;3.45;;;2.38;;
58302;SDS011;44109;52.398;7.024;2023-04-01T12:38:01;2.53;;;1.30;;
58302;SDS011;44109;52.398;7.024;2023-04-01T12:50:38;3.42;;;1.60;;
58302;SDS011;44109;52.398;7.024;2023-04-01T12:53:36;1.35;;;0.90;;
58302;SDS011;44109;52.398;7.024;2023-04-01T12:56:28;1.73;;;0.97;;
58302;SDS011;44109;52.398;7.024;2023-04-01T12:59:23;2.30;;;1.27;;
58302;SDS011;44109;52.398;7.024;2023-04-01T13:02:11;1.60;;;0.95;;
58302;SDS011;44109;52.398;7.024;2023-04-01T13:05:15;1.60;;;1.08;;
58302;SDS011;44109;52.398;7.024;2023-04-01T13:08:10;3.97;;;2.95;;
58302;SDS011;44109;52.398;7.024;2023-04-01T13:11:08;1.70;;;1.60;;
58302;SDS011;44109;52.398;7.024;2023-04-01T13:13:49;3.70;;;3.28;;
58302;SDS011;44109;52.398;7.024;2023-04-01T13:16:52;3.47;;;3.17;;
58302;SDS011;44109;52.398;7.024;2023-04-01T13:19:31;3.25;;;2.60;;
58302;SDS011;44109;52.398;7.024;2023-04-01T13:22:09;2.53;;;2.17;;
58302;SDS011;44109;52.398;7.024;2023-04-01T13:24:51;3.00;;;2.20;;
58302;SDS011;44109;52.398;7.024;2023-04-01T13:27:30;2.65;;;2.10;;
58302;SDS011;44109;52.398;7.024;2023-04-01T13:30:12;4.43;;;2.97;;
58302;SDS011;44109;52.398;7.024;2023-04-01T13:32:54;2.90;;;2.20;;
58302;SDS011;44109;52.398;7.024;2023-04-01T13:35:35;2.42;;;1.70;;
58302;SDS011;44109;52.398;7.024;2023-04-01T13:38:18;3.40;;;2.33;;
58302;SDS011;44109;52.398;7.024;2023-04-01T13:41:32;3.67;;;2.65;;
58302;SDS011;44109;52.398;7.024;2023-04-01T13:44:20;4.22;;;3.20;;
58302;SDS011;44109;52.398;7.024;2023-04-01T13:47:10;2.47;;;1.83;;
58302;SDS011;44109;52.398;7.024;2023-04-01T13:50:06;4.65;;;2.28;;
58302;SDS011;44109;52.398;7.024;2023-04-01T13:53:00;3.15;;;2.45;;
58302;SDS011;44109;52.398;7.024;2023-04-01T13:56:01;3.15;;;2.05;;
58302;SDS011;44109;52.398;7.024;2023-04-01T13:59:00;3.58;;;2.33;;
58302;SDS011;44109;52.398;7.024;2023-04-01T14:02:04;3.20;;;2.20;;
58302;SDS011;44109;52.398;7.024;2023-04-01T14:05:00;3.47;;;2.30;;
58302;SDS011;44109;52.398;7.024;2023-04-01T14:08:05;3.45;;;2.38;;
58302;SDS011;44109;52.398;7.024;2023-04-01T14:10:49;6.28;;;3.60;;
58302;SDS011;44109;52.398;7.024;2023-04-01T14:13:39;4.55;;;2.95;;
58302;SDS011;44109;52.398;7.024;2023-04-01T14:16:27;3.08;;;2.10;;
58302;SDS011;44109;52.398;7.024;2023-04-01T14:19:33;3.35;;;2.40;;
58302;SDS011;44109;52.398;7.024;2023-04-01T14:22:34;4.60;;;2.65;;
58302;SDS011;44109;52.398;7.024;2023-04-01T14:25:25;5.57;;;3.03;;
58302;SDS011;44109;52.398;7.024;2023-04-01T14:28:12;4.95;;;3.10;;
58302;SDS011;44109;52.398;7.024;2023-04-01T14:30:59;8.35;;;4.63;;
58302;SDS011;44109;52.398;7.024;2023-04-01T14:33:58;16.38;;;8.27;;
58302;SDS011;44109;52.398;7.024;2023-04-01T14:43:04;6.38;;;4.75;;
58302;SDS011;44109;52.398;7.024;2023-04-01T14:46:20;10.57;;;8.25;;
58302;SDS011;44109;52.398;7.024;2023-04-01T14:49:20;8.93;;;7.88;;
58302;SDS011;44109;52.398;7.024;2023-04-01T14:52:02;5.65;;;5.05;;
58302;SDS011;44109;52.398;7.024;2023-04-01T14:54:38;5.35;;;4.68;;
58302;SDS011;44109;52.398;7.024;2023-04-01T14:57:11;4.93;;;4.28;;
58302;SDS011;44109;52.398;7.024;2023-04-01T14:59:46;3.33;;;2.95;;
58302;SDS011;44109;52.398;7.024;2023-04-01T15:02:31;4.82;;;3.50;;
58302;SDS011;44109;52.398;7.024;2023-04-01T15:08:03;4.40;;;3.72;;
58302;SDS011;44109;52.398;7.024;2023-04-01T15:10:58;3.97;;;3.58;;
58302;SDS011;44109;52.398;7.024;2023-04-01T15:16:53;3.13;;;2.83;;
58302;SDS011;44109;52.398;7.024;2023-04-01T15:19:38;3.33;;;2.75;;
58302;SDS011;44109;52.398;7.024;2023-04-01T15:22:34;4.68;;;2.58;;
58302;SDS011;44109;52.398;7.024;2023-04-01T15:25:30;2.90;;;2.60;;
58302;SDS011;44109;52.398;7.024;2023-04-01T15:28:16;3.28;;;2.55;;
58302;SDS011;44109;52.398;7.024;2023-04-01T15:30:57;3.05;;;2.30;;
58302;SDS011;44109;52.398;7.024;2023-04-01T15:33:39;3.80;;;2.78;;
58302;SDS011;44109;52.398;7.024;2023-04-01T15:36:38;3.95;;;2.40;;
58302;SDS011;44109;52.398;7.024;2023-04-01T15:39:19;2.83;;;2.13;;
58302;SDS011;44109;52.398;7.024;2023-04-01T15:42:05;2.95;;;2.35;;
58302;SDS011;44109;52.398;7.024;2023-04-01T15:44:58;4.47;;;4.07;;
58302;SDS011;44109;52.398;7.024;2023-04-01T15:47:45;3.78;;;3.38;;
58302;SDS011;44109;52.398;7.024;2023-04-01T15:50:28;4.07;;;3.55;;
58302;SDS011;44109;52.398;7.024;2023-04-01T15:53:17;4.60;;;4.10;;
58302;SDS011;44109;52.398;7.024;2023-04-01T15:56:19;4.72;;;4.32;;
58302;SDS011;44109;52.398;7.024;2023-04-01T15:59:09;4.47;;;3.03;;
58302;SDS011;44109;52.398;7.024;2023-04-01T16:01:57;2.95;;;2.60;;
58302;SDS011;44109;52.398;7.024;2023-04-01T16:04:42;3.63;;;2.60;;
58302;SDS011;44109;52.398;7.024;2023-04-01T16:07:24;2.75;;;2.00;;
58302;SDS011;44109;52.398;7.024;2023-04-01T16:10:25;2.28;;;2.00;;
58302;SDS011;44109;52.398;7.024;2023-04-01T16:13:20;2.75;;;2.00;;
58302;SDS011;44109;52.398;7.024;2023-04-01T16:16:13;2.88;;;2.40;;
58302;SDS011;44109;52.398;7.024;2023-04-01T16:18:59;3.22;;;2.78;;
58302;SDS011;44109;52.398;7.024;2023-04-01T16:21:56;3.47;;;2.90;;
58302;SDS011;44109;52.398;7.024;2023-04-01T16:24:31;2.83;;;2.53;;
58302;SDS011;44109;52.398;7.024;2023-04-01T16:27:09;2.70;;;2.13;;
58302;SDS011;44109;52.398;7.024;2023-04-01T16:29:47;2.40;;;1.88;;
58302;SDS011;44109;52.398;7.024;2023-04-01T16:32:37;3.22;;;2.45;;
58302;SDS011;44109;52.398;7.024;2023-04-01T16:35:20;3.63;;;2.58;;
58302;SDS011;44109;52.398;7.024;2023-04-01T16:38:04;3.03;;;2.28;;
58302;SDS011;44109;52.398;7.024;2023-04-01T16:40:43;2.95;;;1.75;;
58302;SDS011;44109;52.398;7.024;2023-04-01T16:43:25;2.63;;;2.30;;
58302;SDS011;44109;52.398;7.024;2023-04-01T16:46:05;3.25;;;2.85;;
58302;SDS011;44109;52.398;7.024;2023-04-01T16:51:52;4.40;;;3.55;;
58302;SDS011;44109;52.398;7.024;2023-04-01T16:54:28;3.05;;;2.40;;
58302;SDS011;44109;52.398;7.024;2023-04-01T16:57:10;4.72;;;3.40;;
58302;SDS011;44109;52.398;7.024;2023-04-01T16:59:47;4.05;;;2.28;;
58302;SDS011;44109;52.398;7.024;2023-04-01T17:02:26;3.38;;;2.08;;
58302;SDS011;44109;52.398;7.024;2023-04-01T17:05:00;2.80;;;2.25;;
58302;SDS011;44109;52.398;7.024;2023-04-01T17:07:38;4.47;;;2.40;;
58302;SDS011;44109;52.398;7.024;2023-04-01T17:10:27;2.53;;;1.98;;
58302;SDS011;44109;52.398;7.024;2023-04-01T17:13:22;6.13;;;3.87;;
58302;SDS011;44109;52.398;7.024;2023-04-01T17:16:06;3.75;;;2.65;;
58302;SDS011;44109;52.398;7.024;2023-04-01T17:19:14;3.13;;;2.10;;
58302;SDS011;44109;52.398;7.024;2023-04-01T17:22:03;4.10;;;2.17;;
58302;SDS011;44109;52.398;7.024;2023-04-01T17:24:51;2.85;;;1.92;;
58302;SDS011;44109;52.398;7.024;2023-04-01T17:27:41;3.30;;;2.20;;
58302;SDS011;44109;52.398;7.024;2023-04-01T17:30:23;2.50;;;1.77;;
58302;SDS011;44109;52.398;7.024;2023-04-01T17:33:07;3.70;;;2.45;;
58302;SDS011;44109;52.398;7.024;2023-04-01T17:36:01;3.38;;;2.50;;
58302;SDS011;44109;52.398;7.024;2023-04-01T17:38:51;3.00;;;2.63;;
58302;SDS011;44109;52.398;7.024;2023-04-01T17:41:36;3.60;;;2.70;;
58302;SDS011;44109;52.398;7.024;2023-04-01T17:44:17;3.88;;;2.40;;
58302;SDS011;44109;52.398;7.024;2023-04-01T17:47:05;2.83;;;2.28;;
58302;SDS011;44109;52.398;7.024;2023-04-01T17:49:59;2.78;;;2.17;;
58302;SDS011;44109;52.398;7.024;2023-04-01T17:52:44;3.67;;;2.30;;
58302;SDS011;44109;52.398;7.024;2023-04-01T17:55:35;3.13;;;2.35;;